Terminal Aerodrome Forecast
Issued by NWS Shreveport, LA

Home | Current Version | Previous Version | Text Only | Print | Product List | Glossary On
Versions: 1 2 3 4 5 6 7 8 9 10 11 12 13
000
FTUS44 KSHV 210500
TAFTXK
TAF
KTXK 210539Z 2106/2206 VRB03KT P6SM SCT035
     FM210800 VRB03KT 6SM BR SKC
      TEMPO 2108/2112 3SM BR
     FM211200 VRB03KT 3SM BR SKC
     FM211500 12004KT P6SM SCT250
     FM211700 15006KT P6SM SCT035 SCT250=

USA.gov is the U.S. government's official web portal to all federal, state and local government web resources and services.